sensor_id;sensor_type;location;lat;lon;timestamp;P1;durP1;ratioP1;P2;durP2;ratioP2
48945;SDS011;34999;50.940;3.998;2023-05-07T00:01:46;9.53;;;6.13;;
48945;SDS011;34999;50.940;3.998;2023-05-07T00:04:14;15.27;;;7.30;;
48945;SDS011;34999;50.940;3.998;2023-05-07T00:06:43;13.90;;;6.23;;
48945;SDS011;34999;50.940;3.998;2023-05-07T00:09:11;12.70;;;6.83;;
48945;SDS011;34999;50.940;3.998;2023-05-07T00:11:39;11.13;;;6.83;;
48945;SDS011;34999;50.940;3.998;2023-05-07T00:14:08;11.77;;;7.23;;
48945;SDS011;34999;50.940;3.998;2023-05-07T00:16:36;12.27;;;6.60;;
48945;SDS011;34999;50.940;3.998;2023-05-07T00:19:06;11.70;;;6.97;;
48945;SDS011;34999;50.940;3.998;2023-05-07T00:21:34;10.60;;;6.67;;
48945;SDS011;34999;50.940;3.998;2023-05-07T00:24:03;14.33;;;7.10;;
48945;SDS011;34999;50.940;3.998;2023-05-07T00:26:31;15.00;;;6.90;;
48945;SDS011;34999;50.940;3.998;2023-05-07T00:29:00;10.80;;;7.00;;
48945;SDS011;34999;50.940;3.998;2023-05-07T00:31:28;10.73;;;6.90;;
48945;SDS011;34999;50.940;3.998;2023-05-07T00:33:56;16.67;;;6.67;;
48945;SDS011;34999;50.940;3.998;2023-05-07T00:36:26;12.87;;;6.90;;
48945;SDS011;34999;50.940;3.998;2023-05-07T00:38:56;17.00;;;7.10;;
48945;SDS011;34999;50.940;3.998;2023-05-07T00:41:26;11.90;;;6.77;;
48945;SDS011;34999;50.940;3.998;2023-05-07T00:43:54;14.60;;;6.83;;
48945;SDS011;34999;50.940;3.998;2023-05-07T00:46:23;11.97;;;6.80;;
48945;SDS011;34999;50.940;3.998;2023-05-07T00:48:52;13.93;;;6.70;;
48945;SDS011;34999;50.940;3.998;2023-05-07T00:51:22;12.03;;;6.90;;
48945;SDS011;34999;50.940;3.998;2023-05-07T00:53:52;15.03;;;7.23;;
48945;SDS011;34999;50.940;3.998;2023-05-07T00:56:21;10.70;;;6.67;;
48945;SDS011;34999;50.940;3.998;2023-05-07T00:58:50;9.90;;;6.60;;
48945;SDS011;34999;50.940;3.998;2023-05-07T01:04:37;14.73;;;6.50;;
48945;SDS011;34999;50.940;3.998;2023-05-07T01:07:06;12.50;;;7.03;;
48945;SDS011;34999;50.940;3.998;2023-05-07T01:09:36;12.77;;;7.03;;
48945;SDS011;34999;50.940;3.998;2023-05-07T01:12:06;12.60;;;7.13;;
48945;SDS011;34999;50.940;3.998;2023-05-07T01:14:35;10.30;;;6.80;;
48945;SDS011;34999;50.940;3.998;2023-05-07T01:17:03;11.17;;;6.77;;
48945;SDS011;34999;50.940;3.998;2023-05-07T01:19:31;10.27;;;6.60;;
48945;SDS011;34999;50.940;3.998;2023-05-07T01:22:01;11.00;;;6.93;;
48945;SDS011;34999;50.940;3.998;2023-05-07T01:24:32;15.93;;;7.30;;
48945;SDS011;34999;50.940;3.998;2023-05-07T01:27:02;12.87;;;7.40;;
48945;SDS011;34999;50.940;3.998;2023-05-07T01:29:31;11.83;;;6.73;;
48945;SDS011;34999;50.940;3.998;2023-05-07T01:32:00;13.00;;;7.60;;
48945;SDS011;34999;50.940;3.998;2023-05-07T01:34:30;10.17;;;6.93;;
48945;SDS011;34999;50.940;3.998;2023-05-07T01:36:59;12.10;;;6.50;;
48945;SDS011;34999;50.940;3.998;2023-05-07T01:39:29;11.73;;;7.17;;
48945;SDS011;34999;50.940;3.998;2023-05-07T01:41:59;14.07;;;7.63;;
48945;SDS011;34999;50.940;3.998;2023-05-07T01:44:27;12.27;;;6.90;;
48945;SDS011;34999;50.940;3.998;2023-05-07T01:46:56;11.03;;;6.97;;
48945;SDS011;34999;50.940;3.998;2023-05-07T01:49:25;10.93;;;7.30;;
48945;SDS011;34999;50.940;3.998;2023-05-07T01:51:54;14.10;;;6.90;;
48945;SDS011;34999;50.940;3.998;2023-05-07T01:54:25;15.23;;;7.50;;
48945;SDS011;34999;50.940;3.998;2023-05-07T01:56:55;12.17;;;7.20;;
48945;SDS011;34999;50.940;3.998;2023-05-07T01:59:25;12.43;;;7.07;;
48945;SDS011;34999;50.940;3.998;2023-05-07T02:01:53;10.47;;;6.77;;
48945;SDS011;34999;50.940;3.998;2023-05-07T02:04:22;11.87;;;7.47;;
48945;SDS011;34999;50.940;3.998;2023-05-07T02:06:51;14.80;;;7.43;;
48945;SDS011;34999;50.940;3.998;2023-05-07T02:09:19;15.30;;;7.30;;
48945;SDS011;34999;50.940;3.998;2023-05-07T02:11:47;13.00;;;7.20;;
48945;SDS011;34999;50.940;3.998;2023-05-07T02:14:15;12.30;;;7.37;;
48945;SDS011;34999;50.940;3.998;2023-05-07T02:16:45;11.30;;;7.33;;
48945;SDS011;34999;50.940;3.998;2023-05-07T02:19:13;10.13;;;6.83;;
48945;SDS011;34999;50.940;3.998;2023-05-07T02:21:42;8.97;;;7.00;;
48945;SDS011;34999;50.940;3.998;2023-05-07T02:24:10;15.57;;;7.60;;
48945;SDS011;34999;50.940;3.998;2023-05-07T02:26:39;15.50;;;7.47;;
48945;SDS011;34999;50.940;3.998;2023-05-07T02:29:07;15.57;;;7.27;;
48945;SDS011;34999;50.940;3.998;2023-05-07T02:31:35;14.27;;;7.10;;
48945;SDS011;34999;50.940;3.998;2023-05-07T02:34:05;11.40;;;7.70;;
48945;SDS011;34999;50.940;3.998;2023-05-07T02:36:33;17.90;;;7.93;;
48945;SDS011;34999;50.940;3.998;2023-05-07T02:39:02;18.10;;;7.93;;
48945;SDS011;34999;50.940;3.998;2023-05-07T02:41:30;9.93;;;7.60;;
48945;SDS011;34999;50.940;3.998;2023-05-07T02:43:58;14.27;;;7.93;;
48945;SDS011;34999;50.940;3.998;2023-05-07T02:46:27;14.90;;;8.23;;
48945;SDS011;34999;50.940;3.998;2023-05-07T02:48:55;10.60;;;7.93;;
48945;SDS011;34999;50.940;3.998;2023-05-07T02:51:25;12.17;;;7.53;;
48945;SDS011;34999;50.940;3.998;2023-05-07T02:53:53;12.73;;;7.67;;
48945;SDS011;34999;50.940;3.998;2023-05-07T02:56:21;14.10;;;7.27;;
48945;SDS011;34999;50.940;3.998;2023-05-07T02:58:50;13.30;;;7.47;;
48945;SDS011;34999;50.940;3.998;2023-05-07T03:01:18;13.40;;;7.30;;
48945;SDS011;34999;50.940;3.998;2023-05-07T03:03:47;10.87;;;6.97;;
48945;SDS011;34999;50.940;3.998;2023-05-07T03:06:15;19.07;;;7.77;;
48945;SDS011;34999;50.940;3.998;2023-05-07T03:08:45;12.87;;;7.43;;
48945;SDS011;34999;50.940;3.998;2023-05-07T03:11:13;10.43;;;7.60;;
48945;SDS011;34999;50.940;3.998;2023-05-07T03:13:41;12.77;;;7.80;;
48945;SDS011;34999;50.940;3.998;2023-05-07T03:16:10;13.37;;;7.87;;
48945;SDS011;34999;50.940;3.998;2023-05-07T03:18:38;15.97;;;7.20;;
48945;SDS011;34999;50.940;3.998;2023-05-07T03:21:06;12.30;;;7.53;;
48945;SDS011;34999;50.940;3.998;2023-05-07T03:23:34;11.33;;;7.80;;
48945;SDS011;34999;50.940;3.998;2023-05-07T03:26:04;14.30;;;7.87;;
48945;SDS011;34999;50.940;3.998;2023-05-07T03:28:32;12.93;;;7.70;;
48945;SDS011;34999;50.940;3.998;2023-05-07T03:31:00;12.57;;;7.73;;
48945;SDS011;34999;50.940;3.998;2023-05-07T03:33:28;11.63;;;8.13;;
48945;SDS011;34999;50.940;3.998;2023-05-07T03:35:57;11.47;;;7.70;;
48945;SDS011;34999;50.940;3.998;2023-05-07T03:38:25;14.63;;;7.83;;
48945;SDS011;34999;50.940;3.998;2023-05-07T03:40:53;11.60;;;7.13;;
48945;SDS011;34999;50.940;3.998;2023-05-07T03:43:23;13.17;;;8.37;;
48945;SDS011;34999;50.940;3.998;2023-05-07T03:45:51;15.33;;;8.60;;
48945;SDS011;34999;50.940;3.998;2023-05-07T03:48:19;17.37;;;8.57;;
48945;SDS011;34999;50.940;3.998;2023-05-07T03:50:47;16.63;;;9.10;;
48945;SDS011;34999;50.940;3.998;2023-05-07T03:53:16;14.83;;;9.30;;
48945;SDS011;34999;50.940;3.998;2023-05-07T03:55:44;11.33;;;7.87;;
48945;SDS011;34999;50.940;3.998;2023-05-07T03:58:12;11.53;;;7.83;;
48945;SDS011;34999;50.940;3.998;2023-05-07T04:00:42;16.43;;;7.87;;
48945;SDS011;34999;50.940;3.998;2023-05-07T04:03:10;12.53;;;7.97;;
48945;SDS011;34999;50.940;3.998;2023-05-07T04:05:39;12.87;;;7.90;;
48945;SDS011;34999;50.940;3.998;2023-05-07T04:08:07;12.60;;;8.40;;
48945;SDS011;34999;50.940;3.998;2023-05-07T04:10:35;11.20;;;8.33;;
48945;SDS011;34999;50.940;3.998;2023-05-07T04:13:03;14.17;;;9.07;;
48945;SDS011;34999;50.940;3.998;2023-05-07T04:15:32;13.80;;;8.30;;
48945;SDS011;34999;50.940;3.998;2023-05-07T04:18:01;12.97;;;8.27;;
48945;SDS011;34999;50.940;3.998;2023-05-07T04:20:30;15.70;;;8.60;;
48945;SDS011;34999;50.940;3.998;2023-05-07T04:22:58;12.37;;;8.20;;
48945;SDS011;34999;50.940;3.998;2023-05-07T04:25:26;13.73;;;8.30;;
48945;SDS011;34999;50.940;3.998;2023-05-07T04:27:55;14.10;;;8.30;;
48945;SDS011;34999;50.940;3.998;2023-05-07T04:30:23;15.80;;;8.03;;
48945;SDS011;34999;50.940;3.998;2023-05-07T04:32:52;14.57;;;8.33;;
48945;SDS011;34999;50.940;3.998;2023-05-07T04:35:22;14.07;;;8.60;;
48945;SDS011;34999;50.940;3.998;2023-05-07T04:37:50;12.77;;;8.47;;
48945;SDS011;34999;50.940;3.998;2023-05-07T04:40:18;13.47;;;8.33;;
48945;SDS011;34999;50.940;3.998;2023-05-07T04:42:46;16.97;;;8.63;;
48945;SDS011;34999;50.940;3.998;2023-05-07T04:45:14;18.50;;;8.87;;
48945;SDS011;34999;50.940;3.998;2023-05-07T04:47:43;13.17;;;8.67;;
48945;SDS011;34999;50.940;3.998;2023-05-07T04:50:11;19.27;;;9.10;;
48945;SDS011;34999;50.940;3.998;2023-05-07T04:52:41;14.13;;;8.30;;
48945;SDS011;34999;50.940;3.998;2023-05-07T04:55:09;12.33;;;8.50;;
48945;SDS011;34999;50.940;3.998;2023-05-07T04:57:38;11.97;;;8.20;;
48945;SDS011;34999;50.940;3.998;2023-05-07T05:00:08;12.43;;;8.30;;
48945;SDS011;34999;50.940;3.998;2023-05-07T05:02:37;15.63;;;8.77;;
48945;SDS011;34999;50.940;3.998;2023-05-07T05:05:06;12.53;;;8.17;;
48945;SDS011;34999;50.940;3.998;2023-05-07T05:07:35;15.17;;;8.53;;
48945;SDS011;34999;50.940;3.998;2023-05-07T05:10:05;16.17;;;9.20;;
48945;SDS011;34999;50.940;3.998;2023-05-07T05:12:34;13.67;;;8.90;;
48945;SDS011;34999;50.940;3.998;2023-05-07T05:15:03;21.17;;;10.30;;
48945;SDS011;34999;50.940;3.998;2023-05-07T05:17:31;13.00;;;8.90;;
48945;SDS011;34999;50.940;3.998;2023-05-07T05:20:01;19.53;;;9.00;;
48945;SDS011;34999;50.940;3.998;2023-05-07T05:22:30;14.40;;;7.87;;
48945;SDS011;34999;50.940;3.998;2023-05-07T05:24:58;18.37;;;8.50;;
48945;SDS011;34999;50.940;3.998;2023-05-07T05:27:28;11.83;;;8.00;;
48945;SDS011;34999;50.940;3.998;2023-05-07T05:29:56;15.73;;;8.70;;
48945;SDS011;34999;50.940;3.998;2023-05-07T05:32:25;10.83;;;8.33;;
48945;SDS011;34999;50.940;3.998;2023-05-07T05:34:53;10.10;;;8.03;;
48945;SDS011;34999;50.940;3.998;2023-05-07T05:37:22;16.23;;;9.10;;
48945;SDS011;34999;50.940;3.998;2023-05-07T05:39:50;13.93;;;7.83;;
48945;SDS011;34999;50.940;3.998;2023-05-07T05:42:21;14.20;;;7.53;;
48945;SDS011;34999;50.940;3.998;2023-05-07T05:44:50;15.07;;;7.67;;
48945;SDS011;34999;50.940;3.998;2023-05-07T05:47:19;12.93;;;7.67;;
48945;SDS011;34999;50.940;3.998;2023-05-07T05:49:47;14.27;;;8.00;;
48945;SDS011;34999;50.940;3.998;2023-05-07T05:52:15;13.53;;;8.17;;
48945;SDS011;34999;50.940;3.998;2023-05-07T05:54:44;20.03;;;8.63;;
48945;SDS011;34999;50.940;3.998;2023-05-07T05:57:12;14.27;;;8.20;;
48945;SDS011;34999;50.940;3.998;2023-05-07T05:59:40;11.90;;;7.87;;
48945;SDS011;34999;50.940;3.998;2023-05-07T06:02:10;9.93;;;7.37;;
48945;SDS011;34999;50.940;3.998;2023-05-07T06:04:38;15.17;;;8.30;;
48945;SDS011;34999;50.940;3.998;2023-05-07T06:07:06;13.87;;;7.43;;
48945;SDS011;34999;50.940;3.998;2023-05-07T06:09:35;12.83;;;7.30;;
48945;SDS011;34999;50.940;3.998;2023-05-07T06:12:03;11.17;;;7.57;;
48945;SDS011;34999;50.940;3.998;2023-05-07T06:14:31;17.33;;;7.77;;
48945;SDS011;34999;50.940;3.998;2023-05-07T06:16:59;16.73;;;7.83;;
48945;SDS011;34999;50.940;3.998;2023-05-07T06:19:29;13.97;;;7.43;;
48945;SDS011;34999;50.940;3.998;2023-05-07T06:21:57;11.57;;;7.10;;
48945;SDS011;34999;50.940;3.998;2023-05-07T06:24:27;12.03;;;7.27;;
48945;SDS011;34999;50.940;3.998;2023-05-07T06:26:55;15.80;;;7.40;;
48945;SDS011;34999;50.940;3.998;2023-05-07T06:29:25;16.40;;;7.97;;
48945;SDS011;34999;50.940;3.998;2023-05-07T06:31:53;11.30;;;6.67;;
48945;SDS011;34999;50.940;3.998;2023-05-07T06:34:22;13.40;;;7.50;;
48945;SDS011;34999;50.940;3.998;2023-05-07T06:36:51;10.43;;;6.67;;
48945;SDS011;34999;50.940;3.998;2023-05-07T06:39:20;13.67;;;7.63;;
48945;SDS011;34999;50.940;3.998;2023-05-07T06:41:48;10.77;;;6.70;;
48945;SDS011;34999;50.940;3.998;2023-05-07T06:44:16;14.00;;;6.90;;
48945;SDS011;34999;50.940;3.998;2023-05-07T06:46:44;15.00;;;7.20;;
48945;SDS011;34999;50.940;3.998;2023-05-07T06:49:13;10.53;;;6.33;;
48945;SDS011;34999;50.940;3.998;2023-05-07T06:51:42;11.60;;;6.30;;
48945;SDS011;34999;50.940;3.998;2023-05-07T06:54:11;14.53;;;6.20;;
48945;SDS011;34999;50.940;3.998;2023-05-07T06:56:39;11.90;;;6.53;;
48945;SDS011;34999;50.940;3.998;2023-05-07T06:59:08;9.50;;;6.30;;
48945;SDS011;34999;50.940;3.998;2023-05-07T07:01:36;8.47;;;5.70;;
48945;SDS011;34999;50.940;3.998;2023-05-07T07:04:04;5.73;;;5.03;;
48945;SDS011;34999;50.940;3.998;2023-05-07T07:06:33;6.60;;;5.30;;
48945;SDS011;34999;50.940;3.998;2023-05-07T07:09:01;12.80;;;5.50;;
48945;SDS011;34999;50.940;3.998;2023-05-07T07:11:31;9.63;;;5.47;;
48945;SDS011;34999;50.940;3.998;2023-05-07T07:13:59;8.27;;;5.00;;
48945;SDS011;34999;50.940;3.998;2023-05-07T07:16:28;6.47;;;4.80;;
48945;SDS011;34999;50.940;3.998;2023-05-07T07:18:56;7.73;;;5.10;;
48945;SDS011;34999;50.940;3.998;2023-05-07T07:21:24;9.17;;;5.03;;
48945;SDS011;34999;50.940;3.998;2023-05-07T07:23:53;12.60;;;5.40;;
48945;SDS011;34999;50.940;3.998;2023-05-07T07:26:21;9.10;;;5.10;;
48945;SDS011;34999;50.940;3.998;2023-05-07T07:28:51;8.53;;;5.30;;
48945;SDS011;34999;50.940;3.998;2023-05-07T07:31:21;6.07;;;5.10;;
48945;SDS011;34999;50.940;3.998;2023-05-07T07:33:50;5.40;;;4.87;;
48945;SDS011;34999;50.940;3.998;2023-05-07T07:36:18;4.60;;;4.20;;
48945;SDS011;34999;50.940;3.998;2023-05-07T07:38:48;9.87;;;4.60;;
48945;SDS011;34999;50.940;3.998;2023-05-07T07:41:17;9.20;;;4.60;;
48945;SDS011;34999;50.940;3.998;2023-05-07T07:43:45;6.57;;;4.40;;
48945;SDS011;34999;50.940;3.998;2023-05-07T07:46:16;6.67;;;4.03;;
48945;SDS011;34999;50.940;3.998;2023-05-07T07:48:46;5.23;;;4.43;;
48945;SDS011;34999;50.940;3.998;2023-05-07T07:51:15;11.60;;;5.00;;
48945;SDS011;34999;50.940;3.998;2023-05-07T07:53:43;6.67;;;4.57;;
48945;SDS011;34999;50.940;3.998;2023-05-07T07:56:11;9.10;;;4.70;;
48945;SDS011;34999;50.940;3.998;2023-05-07T07:58:40;8.80;;;5.00;;
48945;SDS011;34999;50.940;3.998;2023-05-07T08:01:08;8.40;;;4.10;;
48945;SDS011;34999;50.940;3.998;2023-05-07T08:03:37;9.77;;;4.10;;
48945;SDS011;34999;50.940;3.998;2023-05-07T08:06:06;5.63;;;4.40;;
48945;SDS011;34999;50.940;3.998;2023-05-07T08:08:35;5.67;;;4.53;;
48945;SDS011;34999;50.940;3.998;2023-05-07T08:11:04;4.67;;;3.93;;
48945;SDS011;34999;50.940;3.998;2023-05-07T08:13:32;6.90;;;4.13;;
48945;SDS011;34999;50.940;3.998;2023-05-07T08:16:00;7.83;;;4.30;;
48945;SDS011;34999;50.940;3.998;2023-05-07T08:18:29;4.63;;;3.80;;
48945;SDS011;34999;50.940;3.998;2023-05-07T08:20:58;5.57;;;4.07;;
48945;SDS011;34999;50.940;3.998;2023-05-07T08:23:27;5.67;;;4.33;;
48945;SDS011;34999;50.940;3.998;2023-05-07T08:25:55;5.53;;;4.43;;
48945;SDS011;34999;50.940;3.998;2023-05-07T08:28:23;7.97;;;5.03;;
48945;SDS011;34999;50.940;3.998;2023-05-07T08:30:52;8.80;;;4.43;;
48945;SDS011;34999;50.940;3.998;2023-05-07T08:33:20;4.40;;;4.10;;
48945;SDS011;34999;50.940;3.998;2023-05-07T08:35:48;7.47;;;4.50;;
48945;SDS011;34999;50.940;3.998;2023-05-07T08:38:18;5.53;;;4.47;;
48945;SDS011;34999;50.940;3.998;2023-05-07T08:40:46;8.20;;;4.70;;
48945;SDS011;34999;50.940;3.998;2023-05-07T08:43:15;6.43;;;4.33;;
48945;SDS011;34999;50.940;3.998;2023-05-07T08:45:46;10.77;;;4.87;;
48945;SDS011;34999;50.940;3.998;2023-05-07T08:48:20;6.00;;;4.50;;
48945;SDS011;34999;50.940;3.998;2023-05-07T08:50:52;8.90;;;4.30;;
48945;SDS011;34999;50.940;3.998;2023-05-07T08:53:22;5.03;;;3.87;;
48945;SDS011;34999;50.940;3.998;2023-05-07T08:55:50;6.60;;;4.30;;
48945;SDS011;34999;50.940;3.998;2023-05-07T08:58:20;6.43;;;4.60;;
48945;SDS011;34999;50.940;3.998;2023-05-07T09:00:48;7.60;;;4.60;;
48945;SDS011;34999;50.940;3.998;2023-05-07T09:03:18;5.83;;;4.30;;
48945;SDS011;34999;50.940;3.998;2023-05-07T09:05:46;5.87;;;4.37;;
48945;SDS011;34999;50.940;3.998;2023-05-07T09:08:14;9.37;;;4.73;;
48945;SDS011;34999;50.940;3.998;2023-05-07T09:10:44;4.50;;;4.20;;
48945;SDS011;34999;50.940;3.998;2023-05-07T09:13:12;5.23;;;4.70;;
48945;SDS011;34999;50.940;3.998;2023-05-07T09:15:41;5.57;;;4.43;;
48945;SDS011;34999;50.940;3.998;2023-05-07T09:18:09;7.00;;;4.27;;
48945;SDS011;34999;50.940;3.998;2023-05-07T09:20:39;6.13;;;4.33;;
48945;SDS011;34999;50.940;3.998;2023-05-07T09:23:08;6.07;;;4.70;;
48945;SDS011;34999;50.940;3.998;2023-05-07T09:25:36;8.13;;;4.77;;
48945;SDS011;34999;50.940;3.998;2023-05-07T09:28:06;8.73;;;4.33;;
48945;SDS011;34999;50.940;3.998;2023-05-07T09:30:36;5.43;;;3.93;;
48945;SDS011;34999;50.940;3.998;2023-05-07T09:33:04;3.80;;;3.50;;
48945;SDS011;34999;50.940;3.998;2023-05-07T09:35:33;6.73;;;3.27;;
48945;SDS011;34999;50.940;3.998;2023-05-07T09:38:01;4.23;;;3.40;;
48945;SDS011;34999;50.940;3.998;2023-05-07T09:40:30;4.30;;;3.30;;
48945;SDS011;34999;50.940;3.998;2023-05-07T09:43:09;7.37;;;3.50;;
48945;SDS011;34999;50.940;3.998;2023-05-07T09:45:39;4.63;;;3.70;;
48945;SDS011;34999;50.940;3.998;2023-05-07T09:48:08;4.50;;;3.33;;
48945;SDS011;34999;50.940;3.998;2023-05-07T09:50:40;5.37;;;3.53;;
48945;SDS011;34999;50.940;3.998;2023-05-07T09:53:16;4.60;;;3.20;;
48945;SDS011;34999;50.940;3.998;2023-05-07T09:55:45;5.27;;;4.30;;
48945;SDS011;34999;50.940;3.998;2023-05-07T09:58:15;5.17;;;3.90;;
48945;SDS011;34999;50.940;3.998;2023-05-07T10:00:45;9.00;;;4.33;;
48945;SDS011;34999;50.940;3.998;2023-05-07T10:03:14;5.93;;;4.60;;
48945;SDS011;34999;50.940;3.998;2023-05-07T10:05:43;5.13;;;4.33;;
48945;SDS011;34999;50.940;3.998;2023-05-07T10:08:13;3.87;;;3.57;;
48945;SDS011;34999;50.940;3.998;2023-05-07T10:10:43;7.33;;;4.30;;
48945;SDS011;34999;50.940;3.998;2023-05-07T10:13:12;5.13;;;4.23;;
48945;SDS011;34999;50.940;3.998;2023-05-07T10:15:43;4.87;;;4.10;;
48945;SDS011;34999;50.940;3.998;2023-05-07T10:18:11;7.63;;;4.73;;
48945;SDS011;34999;50.940;3.998;2023-05-07T10:20:41;4.70;;;4.03;;
48945;SDS011;34999;50.940;3.998;2023-05-07T10:23:13;6.73;;;6.03;;
48945;SDS011;34999;50.940;3.998;2023-05-07T10:25:44;5.57;;;5.07;;
48945;SDS011;34999;50.940;3.998;2023-05-07T10:28:14;5.50;;;4.53;;
48945;SDS011;34999;50.940;3.998;2023-05-07T10:30:48;4.40;;;4.10;;
48945;SDS011;34999;50.940;3.998;2023-05-07T10:33:28;6.27;;;4.67;;
48945;SDS011;34999;50.940;3.998;2023-05-07T10:35:59;5.07;;;4.20;;
48945;SDS011;34999;50.940;3.998;2023-05-07T10:38:30;6.27;;;4.60;;
48945;SDS011;34999;50.940;3.998;2023-05-07T10:40:59;4.47;;;4.03;;
48945;SDS011;34999;50.940;3.998;2023-05-07T10:43:38;5.03;;;4.30;;
48945;SDS011;34999;50.940;3.998;2023-05-07T10:46:13;5.50;;;4.70;;
48945;SDS011;34999;50.940;3.998;2023-05-07T10:51:38;6.50;;;4.30;;
48945;SDS011;34999;50.940;3.998;2023-05-07T10:54:19;6.00;;;4.53;;
48945;SDS011;34999;50.940;3.998;2023-05-07T10:56:49;6.47;;;4.57;;
48945;SDS011;34999;50.940;3.998;2023-05-07T10:59:32;6.07;;;4.33;;
48945;SDS011;34999;50.940;3.998;2023-05-07T11:02:08;4.67;;;4.27;;
48945;SDS011;34999;50.940;3.998;2023-05-07T11:04:38;4.97;;;4.53;;
48945;SDS011;34999;50.940;3.998;2023-05-07T11:07:21;5.17;;;4.40;;
48945;SDS011;34999;50.940;3.998;2023-05-07T11:09:56;5.30;;;4.80;;
48945;SDS011;34999;50.940;3.998;2023-05-07T11:12:46;9.60;;;6.70;;
48945;SDS011;34999;50.940;3.998;2023-05-07T11:15:38;6.10;;;4.97;;
48945;SDS011;34999;50.940;3.998;2023-05-07T11:18:14;5.57;;;4.40;;
48945;SDS011;34999;50.940;3.998;2023-05-07T11:20:55;5.63;;;4.53;;
48945;SDS011;34999;50.940;3.998;2023-05-07T11:26:26;4.50;;;4.17;;
48945;SDS011;34999;50.940;3.998;2023-05-07T11:28:56;4.77;;;3.93;;
48945;SDS011;34999;50.940;3.998;2023-05-07T11:31:28;4.87;;;4.53;;
48945;SDS011;34999;50.940;3.998;2023-05-07T11:33:56;5.00;;;4.57;;
48945;SDS011;34999;50.940;3.998;2023-05-07T11:36:25;5.07;;;4.67;;
48945;SDS011;34999;50.940;3.998;2023-05-07T11:38:59;4.20;;;3.80;;
48945;SDS011;34999;50.940;3.998;2023-05-07T11:41:33;4.83;;;4.40;;
48945;SDS011;34999;50.940;3.998;2023-05-07T11:44:03;3.60;;;3.37;;
48945;SDS011;34999;50.940;3.998;2023-05-07T11:46:33;5.27;;;3.60;;
48945;SDS011;34999;50.940;3.998;2023-05-07T11:49:01;4.00;;;3.70;;
48945;SDS011;34999;50.940;3.998;2023-05-07T11:51:30;4.23;;;3.80;;
48945;SDS011;34999;50.940;3.998;2023-05-07T11:53:58;3.87;;;3.57;;
48945;SDS011;34999;50.940;3.998;2023-05-07T11:56:26;3.50;;;3.30;;
48945;SDS011;34999;50.940;3.998;2023-05-07T11:58:54;3.70;;;3.50;;
48945;SDS011;34999;50.940;3.998;2023-05-07T12:01:23;3.57;;;3.37;;
48945;SDS011;34999;50.940;3.998;2023-05-07T12:03:52;3.27;;;3.17;;
48945;SDS011;34999;50.940;3.998;2023-05-07T12:06:21;3.30;;;3.10;;
48945;SDS011;34999;50.940;3.998;2023-05-07T12:08:49;2.77;;;2.60;;
48945;SDS011;34999;50.940;3.998;2023-05-07T12:11:21;3.03;;;2.90;;
48945;SDS011;34999;50.940;3.998;2023-05-07T12:13:51;3.00;;;2.80;;
48945;SDS011;34999;50.940;3.998;2023-05-07T12:16:27;3.17;;;2.87;;
48945;SDS011;34999;50.940;3.998;2023-05-07T12:18:58;2.83;;;2.73;;
48945;SDS011;34999;50.940;3.998;2023-05-07T12:21:27;3.33;;;2.90;;
48945;SDS011;34999;50.940;3.998;2023-05-07T12:23:56;3.40;;;3.10;;
48945;SDS011;34999;50.940;3.998;2023-05-07T12:26:25;5.77;;;2.60;;
48945;SDS011;34999;50.940;3.998;2023-05-07T12:28:53;2.53;;;2.47;;
48945;SDS011;34999;50.940;3.998;2023-05-07T12:31:21;3.77;;;3.17;;
48945;SDS011;34999;50.940;3.998;2023-05-07T12:33:50;4.83;;;4.30;;
48945;SDS011;34999;50.940;3.998;2023-05-07T12:36:20;5.00;;;4.70;;
48945;SDS011;34999;50.940;3.998;2023-05-07T12:38:49;5.63;;;5.10;;
48945;SDS011;34999;50.940;3.998;2023-05-07T12:41:17;6.73;;;5.67;;
48945;SDS011;34999;50.940;3.998;2023-05-07T12:43:52;7.77;;;6.30;;
48945;SDS011;34999;50.940;3.998;2023-05-07T12:46:24;6.13;;;5.60;;
48945;SDS011;34999;50.940;3.998;2023-05-07T12:48:52;6.00;;;5.50;;
48945;SDS011;34999;50.940;3.998;2023-05-07T12:51:22;6.80;;;6.20;;
48945;SDS011;34999;50.940;3.998;2023-05-07T12:53:50;10.37;;;6.80;;
48945;SDS011;34999;50.940;3.998;2023-05-07T12:56:24;6.97;;;6.37;;
48945;SDS011;34999;50.940;3.998;2023-05-07T12:58:56;8.10;;;7.33;;
48945;SDS011;34999;50.940;3.998;2023-05-07T13:01:28;7.10;;;6.47;;
48945;SDS011;34999;50.940;3.998;2023-05-07T13:04:00;6.93;;;6.27;;
48945;SDS011;34999;50.940;3.998;2023-05-07T13:06:31;7.90;;;7.10;;
48945;SDS011;34999;50.940;3.998;2023-05-07T13:09:00;7.27;;;6.67;;
48945;SDS011;34999;50.940;3.998;2023-05-07T13:11:28;6.30;;;5.70;;
48945;SDS011;34999;50.940;3.998;2023-05-07T13:13:56;5.97;;;5.47;;
48945;SDS011;34999;50.940;3.998;2023-05-07T13:16:24;6.43;;;5.93;;
48945;SDS011;34999;50.940;3.998;2023-05-07T13:18:52;6.87;;;6.13;;
48945;SDS011;34999;50.940;3.998;2023-05-07T13:21:21;7.13;;;6.47;;
48945;SDS011;34999;50.940;3.998;2023-05-07T13:23:50;6.50;;;6.00;;
48945;SDS011;34999;50.940;3.998;2023-05-07T13:26:18;7.07;;;6.57;;
48945;SDS011;34999;50.940;3.998;2023-05-07T13:28:52;7.03;;;6.37;;
48945;SDS011;34999;50.940;3.998;2023-05-07T13:31:21;6.47;;;5.97;;
48945;SDS011;34999;50.940;3.998;2023-05-07T13:33:49;9.27;;;6.40;;
48945;SDS011;34999;50.940;3.998;2023-05-07T13:36:19;7.13;;;6.53;;
48945;SDS011;34999;50.940;3.998;2023-05-07T13:38:47;7.00;;;6.30;;
48945;SDS011;34999;50.940;3.998;2023-05-07T13:41:18;8.03;;;7.30;;
48945;SDS011;34999;50.940;3.998;2023-05-07T13:43:46;7.33;;;6.67;;
48945;SDS011;34999;50.940;3.998;2023-05-07T13:46:15;7.13;;;6.53;;
48945;SDS011;34999;50.940;3.998;2023-05-07T13:48:43;7.97;;;7.17;;
48945;SDS011;34999;50.940;3.998;2023-05-07T13:51:12;7.00;;;6.10;;
48945;SDS011;34999;50.940;3.998;2023-05-07T13:53:40;14.27;;;6.87;;
48945;SDS011;34999;50.940;3.998;2023-05-07T13:56:08;7.37;;;6.73;;
48945;SDS011;34999;50.940;3.998;2023-05-07T13:58:38;8.07;;;7.37;;
48945;SDS011;34999;50.940;3.998;2023-05-07T14:01:24;8.63;;;7.70;;
48945;SDS011;34999;50.940;3.998;2023-05-07T14:03:52;8.23;;;7.53;;
48945;SDS011;34999;50.940;3.998;2023-05-07T14:06:21;9.73;;;7.73;;
48945;SDS011;34999;50.940;3.998;2023-05-07T14:08:49;9.20;;;7.80;;
48945;SDS011;34999;50.940;3.998;2023-05-07T14:11:17;8.80;;;7.90;;
48945;SDS011;34999;50.940;3.998;2023-05-07T14:13:47;8.30;;;7.50;;
48945;SDS011;34999;50.940;3.998;2023-05-07T14:16:15;8.27;;;7.47;;
48945;SDS011;34999;50.940;3.998;2023-05-07T14:18:43;8.07;;;7.30;;
48945;SDS011;34999;50.940;3.998;2023-05-07T14:21:12;9.33;;;7.80;;
48945;SDS011;34999;50.940;3.998;2023-05-07T14:23:40;9.57;;;7.97;;
48945;SDS011;34999;50.940;3.998;2023-05-07T14:26:08;10.17;;;8.37;;
48945;SDS011;34999;50.940;3.998;2023-05-07T14:28:37;12.30;;;9.10;;
48945;SDS011;34999;50.940;3.998;2023-05-07T14:31:07;10.53;;;9.23;;
48945;SDS011;34999;50.940;3.998;2023-05-07T14:33:36;12.60;;;9.20;;
48945;SDS011;34999;50.940;3.998;2023-05-07T14:36:07;12.87;;;9.33;;
48945;SDS011;34999;50.940;3.998;2023-05-07T14:38:35;10.10;;;8.70;;
48945;SDS011;34999;50.940;3.998;2023-05-07T14:41:03;12.87;;;8.97;;
48945;SDS011;34999;50.940;3.998;2023-05-07T14:43:32;15.30;;;9.37;;
48945;SDS011;34999;50.940;3.998;2023-05-07T14:46:00;12.80;;;9.67;;
48945;SDS011;34999;50.940;3.998;2023-05-07T14:48:29;14.47;;;9.90;;
48945;SDS011;34999;50.940;3.998;2023-05-07T14:50:58;11.33;;;9.77;;
48945;SDS011;34999;50.940;3.998;2023-05-07T14:53:26;15.00;;;9.53;;
48945;SDS011;34999;50.940;3.998;2023-05-07T14:55:54;13.30;;;10.80;;
48945;SDS011;34999;50.940;3.998;2023-05-07T14:58:23;17.50;;;10.37;;
48945;SDS011;34999;50.940;3.998;2023-05-07T15:00:51;15.83;;;10.83;;
48945;SDS011;34999;50.940;3.998;2023-05-07T15:03:19;15.00;;;9.97;;